Time;durP1;ratioP1;P1;durP2;ratioP2;P2;SDS_P1;SDS_P2;PMS_P1;PMS_P2;Temp;Humidity;BMP_temperature;BMP_pressure;BME280_temperature;BME280_humidity;BME280_pressure;Samples;Min_cycle;Max_cycle;Signal;HPM_P1;HPM_P2
2022/10/11 00:01:16;;;;;;;5.53;3.52;;;;;;;20.60;44.50;101654.41;1752557;81;21007;-86
2022/10/11 00:03:43;;;;;;;4.40;3.45;;;;;;;20.60;44.48;101654.41;1724950;81;21086;-86
2022/10/11 00:06:09;;;;;;;8.00;3.72;;;;;;;20.61;44.48;101656.61;1731219;82;21096;-87
2022/10/11 00:08:35;;;;;;;5.45;3.47;;;;;;;20.60;44.46;101653.58;1689847;84;21688;-86
2022/10/11 00:11:04;;;;;;;5.37;3.87;;;;;;;20.59;44.46;101649.16;1699951;83;21042;-87
2022/10/11 00:13:31;;;;;;;5.25;3.37;;;;;;;20.61;44.48;101648.32;1720244;83;21065;-87
2022/10/11 00:15:57;;;;;;;4.60;3.22;;;;;;;20.60;44.47;101643.91;1732559;82;21591;-87
2022/10/11 00:18:23;;;;;;;6.80;3.45;;;;;;;20.59;44.46;101638.93;1702615;82;21643;-85
2022/10/11 00:20:50;;;;;;;5.60;3.77;;;;;;;20.59;44.44;101638.93;1695866;83;21083;-86
2022/10/11 00:23:16;;;;;;;5.80;3.05;;;;;;;20.59;44.44;101648.61;1675086;84;21163;-87
2022/10/11 00:25:43;;;;;;;6.55;3.80;;;;;;;20.59;44.42;101636.72;1703196;84;21648;-85
2022/10/11 00:28:09;;;;;;;5.12;3.15;;;;;;;20.60;44.43;101641.14;1674645;84;21605;-86
2022/10/11 00:30:35;;;;;;;6.17;3.33;;;;;;;20.58;44.40;101631.75;1702357;84;21099;-86
2022/10/11 00:33:02;;;;;;;5.25;3.98;;;;;;;20.59;44.40;101634.78;1702109;84;21151;-86
2022/10/11 00:35:28;;;;;;;4.92;3.45;;;;;;;20.59;44.40;101633.41;1702752;82;21060;-86
2022/10/11 00:37:55;;;;;;;4.40;3.45;;;;;;;20.60;44.37;101641.14;1702856;84;21180;-86
2022/10/11 00:40:21;;;;;;;4.50;3.22;;;;;;;20.59;44.38;101633.41;1702680;84;21138;-84
2022/10/11 00:42:47;;;;;;;5.03;3.20;;;;;;;20.59;44.37;101629.25;1697736;83;21594;-87
2022/10/11 00:45:34;;;;;;;5.65;3.37;;;;;;;20.59;44.34;101624.28;1702410;84;21099;-87
2022/10/11 00:48:03;;;;;;;5.85;3.52;;;;;;;20.59;44.32;101620.13;1675714;83;21044;-87
2022/10/11 00:50:32;;;;;;;6.53;3.33;;;;;;;20.58;44.32;101620.69;1702449;84;21163;-86
2022/10/11 00:53:01;;;;;;;5.08;3.60;;;;;;;20.58;44.32;101619.30;1702481;84;22081;-87
2022/10/11 00:55:30;;;;;;;5.75;3.30;;;;;;;20.57;44.31;101614.92;1702532;84;21506;-87
2022/10/11 00:57:57;;;;;;;4.85;3.37;;;;;;;20.57;44.31;101613.54;1702447;84;21538;-87
2022/10/11 01:00:24;;;;;;;4.95;3.22;;;;;;;20.58;44.32;101615.75;1702543;83;21111;-87
2022/10/11 01:02:50;;;;;;;4.67;3.42;;;;;;;20.58;44.31;101614.36;1702219;84;21138;-86
2022/10/11 01:05:17;;;;;;;4.62;3.27;;;;;;;20.57;44.30;101609.95;1718084;82;21586;-87
2022/10/11 01:07:44;;;;;;;5.72;3.22;;;;;;;20.58;44.27;101606.86;1701669;82;21004;-86
2022/10/11 01:10:11;;;;;;;6.33;3.17;;;;;;;20.58;44.27;101603.30;1728806;82;21052;-87
2022/10/11 01:12:38;;;;;;;5.22;3.55;;;;;;;20.57;44.26;101591.42;1728784;82;21059;-87
2022/10/11 01:15:17;;;;;;;6.42;3.60;;;;;;;20.57;44.26;101587.28;1728948;82;21083;-87
2022/10/11 01:18:04;;;;;;;5.22;3.22;;;;;;;20.57;44.25;101587.28;1725625;83;21184;-86
2022/10/11 01:20:52;;;;;;;5.05;3.52;;;;;;;20.57;44.24;101591.42;1705624;82;21160;-87
2022/10/11 01:23:50;;;;;;;4.45;3.08;;;;;;;20.56;44.21;101587.01;1724613;81;21716;-87
2022/10/11 01:26:31;;;;;;;6.08;3.70;;;;;;;20.56;44.21;101582.03;1718679;83;21060;-86
2022/10/11 01:29:38;;;;;;;5.28;3.72;;;;;;;20.55;44.20;101575.67;1719268;83;21619;-87
2022/10/11 01:32:24;;;;;;;4.75;3.20;;;;;;;20.54;44.20;101569.88;1719414;83;21158;-85
2022/10/11 01:35:10;;;;;;;4.67;3.58;;;;;;;20.53;44.20;101568.81;1719207;83;21562;-87
2022/10/11 01:37:43;;;;;;;7.90;3.80;;;;;;;20.51;44.20;101567.17;1719636;83;21012;-86
2022/10/11 01:40:31;;;;;;;5.17;3.10;;;;;;;20.52;44.20;101572.14;1719355;83;21072;-87
2022/10/11 01:42:57;;;;;;;6.05;3.22;;;;;;;20.51;44.18;101567.72;1718186;83;21569;-87
2022/10/11 01:45:24;;;;;;;5.37;3.72;;;;;;;20.51;44.18;101567.17;1719431;83;22056;-87
2022/10/11 01:48:09;;;;;;;7.30;3.77;;;;;;;20.52;44.17;101565.23;1692820;83;21519;-87
2022/10/11 01:50:44;;;;;;;4.40;3.08;;;;;;;20.53;44.16;101564.67;1719329;83;21088;-87
2022/10/11 01:53:40;;;;;;;5.25;3.55;;;;;;;20.51;44.16;101567.72;1719447;82;21179;-87
2022/10/11 01:56:23;;;;;;;5.67;3.27;;;;;;;20.52;44.16;101569.37;1720200;83;21119;-86
2022/10/11 01:59:01;;;;;;;5.58;3.67;;;;;;;20.50;44.15;101576.58;1721633;83;21130;-87
2022/10/11 02:01:57;;;;;;;5.17;3.37;;;;;;;20.50;44.15;101575.19;1698121;82;21602;-88
2022/10/11 02:04:48;;;;;;;6.60;3.67;;;;;;;20.50;44.13;101581.27;1725243;82;21079;-87
2022/10/11 02:07:50;;;;;;;4.83;3.00;;;;;;;20.50;44.13;101586.80;1739924;82;21666;-88
2022/10/11 02:10:22;;;;;;;8.55;3.40;;;;;;;20.50;44.13;101584.04;1740535;82;21025;-87
2022/10/11 02:13:13;;;;;;;5.22;3.65;;;;;;;20.49;44.12;101576.34;1745904;80;21836;-86
2022/10/11 02:15:45;;;;;;;;;;;;;;;20.49;44.11;101566.66;1749453;80;21072;-87
2022/10/11 02:18:19;;;;;;;6.05;3.15;;;;;;;20.49;44.11;101567.22;1727499;82;20481;-87
2022/10/11 02:20:45;;;;;;;5.15;3.47;;;;;;;20.47;44.10;101563.36;1706862;80;21113;-88
2022/10/11 02:23:20;;;;;;;5.60;3.85;;;;;;;20.47;44.10;101563.36;1757538;80;21093;-87
2022/10/11 02:25:46;;;;;;;4.37;2.98;;;;;;;20.47;44.10;101561.15;1757255;80;21115;-86
2022/10/11 02:28:17;;;;;;;4.75;3.30;;;;;;;20.46;44.10;101563.09;1728885;81;21025;-87
2022/10/11 02:30:43;;;;;;;;;;;;;;;20.47;44.07;101566.67;1752253;81;21582;-87
2022/10/11 02:33:12;;;;;;;4.97;3.30;;;;;;;20.48;44.05;101568.33;1739090;81;20604;-87
2022/10/11 02:35:41;;;;;;;5.12;3.37;;;;;;;20.47;44.08;101565.30;1735038;81;21075;-87
2022/10/11 02:38:24;;;;;;;5.97;3.65;;;;;;;20.47;44.07;101566.67;1735045;82;21130;-87
2022/10/11 02:40:55;;;;;;;5.50;3.25;;;;;;;20.46;44.05;101564.47;1734743;82;21059;-87
2022/10/11 02:43:35;;;;;;;5.53;3.72;;;;;;;20.47;44.04;101565.30;1735494;82;21035;-87
2022/10/11 02:46:02;;;;;;;6.03;3.85;;;;;;;20.47;44.03;101564.73;1735019;82;21628;-87
2022/10/11 02:48:28;;;;;;;7.05;3.72;;;;;;;20.48;43.99;101568.33;1735295;82;21075;-87
2022/10/11 02:50:57;;;;;;;4.78;3.58;;;;;;;20.48;43.99;101562.25;1734730;82;21096;-87
2022/10/11 02:53:24;;;;;;;5.10;3.98;;;;;;;20.48;43.98;101550.36;1726177;83;21060;-88
2022/10/11 02:55:51;;;;;;;7.08;3.87;;;;;;;20.48;43.97;101550.36;1727270;81;21119;-88
2022/10/11 02:58:18;;;;;;;4.15;3.08;;;;;;;20.47;43.95;101548.16;1724467;81;21082;-88
2022/10/11 03:00:51;;;;;;;4.97;3.62;;;;;;;20.47;43.93;101548.16;1726991;83;21628;-87
2022/10/11 03:03:17;;;;;;;5.33;3.60;;;;;;;20.48;43.93;101546.22;1727095;81;21683;-87
2022/10/11 03:05:43;;;;;;;6.25;3.98;;;;;;;20.48;43.91;101542.89;1727009;83;21047;-87
2022/10/11 03:08:12;;;;;;;5.58;3.60;;;;;;;20.48;43.88;101545.66;1726798;83;21546;-86
2022/10/11 03:10:44;;;;;;;4.95;3.35;;;;;;;20.48;43.88;101544.83;1727076;83;21108;-87
2022/10/11 03:13:11;;;;;;;7.05;3.85;;;;;;;20.48;43.88;101546.22;1727157;83;21055;-87
2022/10/11 03:15:37;;;;;;;6.53;3.22;;;;;;;20.48;43.84;101539.30;1726950;83;21740;-87
2022/10/11 03:18:04;;;;;;;6.55;4.17;;;;;;;20.49;43.85;101539.58;1727188;82;21112;-87
2022/10/11 03:20:30;;;;;;;5.53;3.40;;;;;;;20.47;43.83;101534.33;1727367;81;21063;-87
2022/10/11 03:22:56;;;;;;;5.87;3.80;;;;;;;20.48;43.81;101532.39;1696104;83;21060;-87
2022/10/11 03:25:23;;;;;;;4.80;3.27;;;;;;;20.48;43.79;101531.02;1695958;83;22221;-87
2022/10/11 03:27:49;;;;;;;5.08;3.58;;;;;;;20.47;43.78;101537.09;1724256;83;21924;-87
2022/10/11 03:30:16;;;;;;;5.85;3.72;;;;;;;20.48;43.77;101540.69;1723418;83;21119;-85
2022/10/11 03:32:43;;;;;;;5.75;3.55;;;;;;;20.47;43.76;101538.48;1723967;82;21072;-87
2022/10/11 03:35:09;;;;;;;5.05;3.50;;;;;;;20.47;43.74;101538.48;1719099;82;21653;-87
2022/10/11 03:37:36;;;;;;;5.53;3.72;;;;;;;20.47;43.72;101535.72;1723759;82;21162;-87
2022/10/11 03:40:09;;;;;;;5.37;3.65;;;;;;;20.47;43.70;101533.51;1724200;82;21299;-88
2022/10/11 03:42:36;;;;;;;6.78;3.37;;;;;;;20.47;43.70;101527.42;1724181;82;21762;-87
2022/10/11 03:45:07;;;;;;;6.05;3.98;;;;;;;20.47;43.66;101521.06;1724400;81;21972;-87
2022/10/11 03:47:34;;;;;;;6.85;4.00;;;;;;;20.47;43.67;101521.89;1748458;82;21077;-87
2022/10/11 03:50:01;;;;;;;4.85;3.80;;;;;;;20.47;43.65;101530.19;1779958;79;21036;-87
2022/10/11 03:52:27;;;;;;;5.67;3.33;;;;;;;20.47;43.63;101530.74;1783932;80;21174;-88
2022/10/11 03:54:54;;;;;;;7.75;4.25;;;;;;;20.46;43.65;101534.06;1784501;80;21581;-87
2022/10/11 03:57:20;;;;;;;4.90;3.83;;;;;;;20.46;43.64;101536.00;1784357;79;21047;-88
2022/10/11 03:59:47;;;;;;;6.00;4.10;;;;;;;20.46;43.62;101534.63;1753508;80;21052;-85
2022/10/11 04:02:13;;;;;;;8.10;4.60;;;;;;;20.44;43.46;101532.73;1782984;80;21048;-87
2022/10/11 04:04:40;;;;;;;6.55;3.83;;;;;;;20.42;43.30;101532.20;1782987;79;21949;-86
2022/10/11 04:07:06;;;;;;;7.62;4.67;;;;;;;20.40;43.18;101528.92;1783203;80;21019;-87
2022/10/11 04:09:32;;;;;;;9.38;3.98;;;;;;;20.38;42.92;101529.77;1783844;80;21130;-87
2022/10/11 04:11:59;;;;;;;8.58;4.33;;;;;;;20.32;42.91;101533.74;1784059;80;21032;-87
2022/10/11 04:14:25;;;;;;;7.60;4.30;;;;;;;20.30;42.90;101537.35;1752663;80;21099;-86
2022/10/11 04:16:58;;;;;;;9.20;5.47;;;;;;;20.30;42.76;101538.73;1791505;78;21099;-87
2022/10/11 04:19:24;;;;;;;11.45;5.30;;;;;;;20.29;42.62;101537.05;1756741;80;21119;-87
2022/10/11 04:21:50;;;;;;;11.15;5.33;;;;;;;20.28;42.51;101543.72;1781444;79;21080;-84
2022/10/11 04:24:17;;;;;;;8.13;5.33;;;;;;;20.26;42.43;101536.27;1785723;79;21118;-84
2022/10/11 04:26:43;;;;;;;13.90;5.05;;;;;;;20.22;42.30;101534.67;1756052;79;21104;-85
2022/10/11 04:29:10;;;;;;;10.18;5.40;;;;;;;20.20;42.11;101537.48;1748155;81;21158;-85
2022/10/11 04:31:37;;;;;;;10.68;6.25;;;;;;;20.16;41.91;101543.30;1768269;80;21123;-84
2022/10/11 04:34:03;;;;;;;11.12;5.65;;;;;;;20.13;41.72;101542.53;1788257;78;21104;-87
2022/10/11 04:36:31;;;;;;;18.92;5.70;;;;;;;20.06;41.53;101535.44;1784853;79;21598;-87
2022/10/11 04:39:00;;;;;;;10.78;4.90;;;;;;;20.02;41.25;101530.25;1798257;78;21041;-87
2022/10/11 04:41:26;;;;;;;14.18;4.35;;;;;;;19.96;41.17;101523.69;1808068;78;21184;-90
2022/10/11 04:43:52;;;;;;;15.10;4.72;;;;;;;19.91;41.02;101524.58;1756798;78;21059;-87
2022/10/11 04:46:19;;;;;;;12.60;5.15;;;;;;;19.86;40.91;101526.59;1788501;78;21079;-89
2022/10/11 04:48:45;;;;;;;13.62;4.72;;;;;;;19.80;40.76;101517.55;1797106;78;21111;-91
2022/10/11 04:51:12;;;;;;;13.80;4.53;;;;;;;19.75;40.69;101514.84;1778399;78;21102;-86
2022/10/11 04:53:38;;;;;;;10.43;4.42;;;;;;;19.70;40.58;101528.70;1778196;78;21545;-88
2022/10/11 04:56:07;;;;;;;15.50;4.53;;;;;;;19.64;40.56;101521.61;1785245;80;21317;-86
2022/10/11 04:58:41;;;;;;;12.70;4.10;;;;;;;19.60;40.53;101521.94;1782028;78;21288;-82
2022/10/11 05:01:08;;;;;;;10.72;3.98;;;;;;;19.58;40.63;101523.59;1788732;78;21154;-84
2022/10/11 05:03:35;;;;;;;12.58;4.33;;;;;;;19.58;40.74;101522.22;1795195;77;21110;-86
2022/10/11 05:06:01;;;;;;;23.47;4.75;;;;;;;19.58;40.71;101518.08;1783419;78;21189;-89
2022/10/11 05:08:27;;;;;;;13.15;4.92;;;;;;;19.56;40.79;101523.64;1792209;78;21063;-87
2022/10/11 05:11:02;;;;;;;21.97;5.22;;;;;;;19.54;40.89;101523.09;1750582;78;21043;-91
2022/10/11 05:13:29;;;;;;;16.15;5.40;;;;;;;19.53;40.94;101529.72;1767428;79;21067;-89
2022/10/11 05:15:55;;;;;;;12.95;4.92;;;;;;;19.50;40.91;101532.52;1779145;78;21048;-86
2022/10/11 05:18:22;;;;;;;18.98;5.75;;;;;;;19.47;40.87;101525.39;1779926;78;21068;-93
2022/10/11 05:21:00;;;;;;;12.23;5.90;;;;;;;19.43;40.85;101521.58;1773997;78;21147;-90
2022/10/11 05:23:28;;;;;;;11.80;5.10;;;;;;;19.39;40.75;101520.48;1748571;78;21071;-89
2022/10/11 05:25:54;;;;;;;13.28;5.08;;;;;;;19.36;40.71;101521.87;1779599;78;21256;-82
2022/10/11 05:28:20;;;;;;;15.98;5.70;;;;;;;19.34;40.66;101531.56;1784762;78;21042;-81
2022/10/11 05:30:46;;;;;;;11.10;5.05;;;;;;;19.32;40.59;101533.23;1743518;80;21281;-83
2022/10/11 05:33:13;;;;;;;19.45;5.12;;;;;;;19.31;40.54;101523.30;1793192;78;21079;-86
2022/10/11 05:35:39;;;;;;;15.72;5.20;;;;;;;19.31;40.53;101522.50;1777710;78;21034;-82
2022/10/11 05:38:05;;;;;;;10.18;4.28;;;;;;;19.27;40.55;101526.38;1779774;78;21032;-79
2022/10/11 05:40:32;;;;;;;13.25;4.55;;;;;;;19.26;40.56;101525.30;1778516;78;21126;-86
2022/10/11 05:42:58;;;;;;;14.78;4.30;;;;;;;19.24;40.51;101520.06;1790779;78;21066;-80
2022/10/11 05:45:26;;;;;;;15.53;4.50;;;;;;;19.22;40.43;101523.69;1806922;78;21724;-87
2022/10/11 05:47:52;;;;;;;11.57;4.60;;;;;;;19.20;40.35;101529.22;1769044;78;21075;-84
2022/10/11 05:50:18;;;;;;;16.50;4.47;;;;;;;19.16;40.35;101527.05;1791508;78;21130;-81
2022/10/11 05:52:45;;;;;;;8.75;4.03;;;;;;;19.18;40.57;101519.05;1795313;78;21032;-82
2022/10/11 05:55:11;;;;;;;16.80;3.75;;;;;;;19.21;40.65;101528.94;1791205;78;21208;-82
2022/10/11 05:57:38;;;;;;;12.45;3.75;;;;;;;19.20;40.67;101520.39;1763345;78;21347;-83
2022/10/11 06:00:06;;;;;;;16.52;3.98;;;;;;;19.23;40.79;101525.86;1792311;78;21313;-79
2022/10/11 06:02:33;;;;;;;22.80;5.15;;;;;;;19.25;40.96;101531.38;1785426;78;21037;-87
2022/10/11 06:05:05;;;;;;;22.13;3.83;;;;;;;19.26;41.05;101528.89;1785266;78;20996;-83
2022/10/11 06:07:31;;;;;;;7.72;3.77;;;;;;;19.28;41.13;101528.58;1790979;78;21133;-89
2022/10/11 06:09:58;;;;;;;9.58;3.85;;;;;;;19.32;41.21;101527.70;1786910;78;21052;-81
2022/10/11 06:12:24;;;;;;;15.75;3.75;;;;;;;19.35;41.19;101524.94;1786420;78;22393;-80
2022/10/11 06:14:50;;;;;;;19.45;4.47;;;;;;;19.37;41.17;101534.56;1784707;78;21578;-86
2022/10/11 06:17:17;;;;;;;12.95;3.70;;;;;;;19.42;41.16;101525.41;1792438;78;21087;-83
2022/10/11 06:19:43;;;;;;;9.83;3.37;;;;;;;19.47;41.18;101537.81;1784390;78;21583;-81
2022/10/11 06:22:11;;;;;;;11.68;3.90;;;;;;;19.49;41.19;101526.73;1798630;78;21182;-82
2022/10/11 06:24:37;;;;;;;18.17;3.77;;;;;;;19.53;41.16;101539.38;1787732;78;21079;-80
2022/10/11 06:27:04;;;;;;;10.15;3.52;;;;;;;19.56;41.15;101534.68;1786871;79;21087;-84
2022/10/11 06:29:30;;;;;;;14.60;3.15;;;;;;;19.57;41.12;101530.23;1761007;80;21057;-88
2022/10/11 06:31:57;;;;;;;9.98;3.02;;;;;;;19.58;41.09;101542.92;1774800;78;21206;-84
2022/10/11 06:34:23;;;;;;;8.45;3.42;;;;;;;19.57;41.08;101533.54;1778911;78;21619;-84
2022/10/11 06:36:50;;;;;;;13.85;3.17;;;;;;;19.56;41.08;101532.72;1787317;78;21027;-81
2022/10/11 06:39:16;;;;;;;6.05;3.70;;;;;;;19.56;41.11;101538.23;1779415;78;21089;-84
2022/10/11 06:41:43;;;;;;;11.55;2.90;;;;;;;19.57;41.16;101541.27;1785278;78;21604;-86
2022/10/11 06:44:12;;;;;;;12.03;3.30;;;;;;;19.59;41.19;101546.50;1782640;78;21128;-87
2022/10/11 06:46:39;;;;;;;12.18;3.35;;;;;;;19.60;41.21;101544.02;1785417;78;21068;-82
2022/10/11 06:49:08;;;;;;;12.50;3.50;;;;;;;19.59;41.32;101545.13;1785016;78;21578;-82
2022/10/11 06:51:37;;;;;;;15.25;3.70;;;;;;;19.61;41.45;101553.92;1780511;78;21056;-81
2022/10/11 06:54:04;;;;;;;14.05;3.70;;;;;;;19.62;41.75;101552.81;1791603;78;21626;-81
2022/10/11 06:56:30;;;;;;;14.20;3.72;;;;;;;19.63;42.01;101549.50;1789438;78;22415;-80
2022/10/11 06:59:00;;;;;;;17.15;3.62;;;;;;;19.63;42.22;101547.56;1777594;78;21100;-85
2022/10/11 07:01:32;;;;;;;23.62;4.40;;;;;;;19.63;42.40;101553.64;1766684;78;21069;-79
2022/10/11 07:04:00;;;;;;;11.50;3.00;;;;;;;19.64;42.52;101556.67;1780142;78;21088;-79
2022/10/11 07:06:29;;;;;;;16.75;3.20;;;;;;;19.63;42.55;101561.92;1748290;78;21105;-81
2022/10/11 07:08:58;;;;;;;12.85;3.08;;;;;;;19.60;42.54;101559.20;1779199;78;21393;-80
2022/10/11 07:11:26;;;;;;;15.85;3.30;;;;;;;19.59;42.55;101557.55;1785787;78;21361;-77
2022/10/11 07:13:57;;;;;;;8.80;3.33;;;;;;;19.56;42.55;101556.17;1778306;78;21509;-78
2022/10/11 07:16:25;;;;;;;13.60;3.37;;;;;;;19.55;42.62;101556.48;1798685;78;21059;-80
2022/10/11 07:18:57;;;;;;;8.83;3.30;;;;;;;19.54;42.66;101554.28;1777583;78;21127;-77
2022/10/11 07:21:24;;;;;;;12.33;3.62;;;;;;;19.55;42.65;101557.31;1786515;78;21210;-77
2022/10/11 07:23:50;;;;;;;7.87;2.83;;;;;;;19.54;42.62;101553.45;1781494;78;21855;-77
2022/10/11 07:26:18;;;;;;;9.88;3.67;;;;;;;19.55;42.56;101557.31;1778218;78;21050;-75
2022/10/11 07:28:44;;;;;;;7.92;2.65;;;;;;;19.56;42.56;101554.00;1781867;78;21101;-76
2022/10/11 07:31:15;;;;;;;12.47;3.02;;;;;;;19.56;42.50;101563.08;1796456;78;21121;-79
2022/10/11 07:33:42;;;;;;;8.95;2.80;;;;;;;19.55;42.49;101553.73;1789819;78;22270;-78
2022/10/11 07:36:10;;;;;;;12.00;3.70;;;;;;;19.56;42.49;101546.52;1768441;78;21111;-80
2022/10/11 07:38:39;;;;;;;7.20;3.40;;;;;;;19.58;42.48;101546.23;1802794;78;21586;-76
2022/10/11 07:41:06;;;;;;;6.78;3.15;;;;;;;19.58;42.50;101540.71;1795117;78;21063;-79
2022/10/11 07:43:32;;;;;;;9.88;3.40;;;;;;;19.58;42.50;101542.09;1783402;78;21111;-79
2022/10/11 07:46:02;;;;;;;22.25;3.05;;;;;;;19.57;42.55;101539.06;1783690;78;21192;-79
2022/10/11 07:48:30;;;;;;;12.85;3.20;;;;;;;19.56;42.57;101536.86;1784295;78;21101;-77
2022/10/11 07:51:22;;;;;;;15.70;3.47;;;;;;;19.56;42.62;101536.06;1796029;78;21561;-80
2022/10/11 07:53:51;;;;;;;15.90;3.47;;;;;;;19.58;42.92;101537.40;1790460;78;21585;-76
2022/10/11 07:56:26;;;;;;;19.42;4.30;;;;;;;19.61;43.52;101536.80;1784550;78;21468;-78
2022/10/11 07:58:58;;;;;;;31.20;3.85;;;;;;;19.65;43.86;101537.03;1778753;78;21169;-80
2022/10/11 08:01:25;;;;;;;16.20;3.90;;;;;;;19.66;44.17;101534.55;1787683;78;21007;-78
2022/10/11 08:03:51;;;;;;;26.65;4.35;;;;;;;19.70;44.34;101538.36;1787991;78;21027;-79
2022/10/11 08:06:22;;;;;;;21.90;4.08;;;;;;;19.72;44.54;101540.28;1780024;78;21083;-80
2022/10/11 08:08:48;;;;;;;12.53;3.75;;;;;;;19.73;44.59;101539.73;1780545;78;21071;-82
2022/10/11 08:11:28;;;;;;;16.52;3.55;;;;;;;19.74;44.56;101536.66;1776133;78;21116;-84
2022/10/11 08:13:54;;;;;;;12.80;3.60;;;;;;;19.72;44.55;101533.38;1784910;78;21068;-83
2022/10/11 08:16:22;;;;;;;21.57;4.55;;;;;;;19.71;44.49;101530.35;1786822;78;32574;-84
2022/10/11 08:18:48;;;;;;;7.47;3.08;;;;;;;19.72;44.44;101536.70;1785327;78;21076;-85
2022/10/11 08:21:16;;;;;;;7.70;2.95;;;;;;;19.70;44.41;101531.46;1781746;78;21122;-82
2022/10/11 08:23:48;;;;;;;10.23;2.85;;;;;;;19.72;44.44;101536.14;1768897;78;22492;-83
2022/10/11 08:26:15;;;;;;;18.30;3.05;;;;;;;19.74;44.60;101531.13;1774967;78;21090;-82
2022/10/11 08:28:41;;;;;;;11.97;3.20;;;;;;;19.76;44.68;101526.16;1765068;79;21043;-82
2022/10/11 08:31:11;;;;;;;9.73;3.02;;;;;;;19.76;44.75;101526.16;1759983;78;21308;-82
2022/10/11 08:33:38;;;;;;;15.90;3.33;;;;;;;19.74;44.76;101535.27;1761554;79;21501;-84
2022/10/11 08:36:05;;;;;;;13.22;2.65;;;;;;;19.74;44.74;101530.31;1763551;79;21356;-83
2022/10/11 08:38:32;;;;;;;13.93;2.83;;;;;;;19.73;44.75;101529.48;1769023;79;21814;-83
2022/10/11 08:40:59;;;;;;;15.10;3.25;;;;;;;19.74;44.85;101528.93;1771719;78;21042;-78
2022/10/11 08:44:15;;;;;;;17.77;3.10;;;;;;;19.76;45.23;101519.81;1738182;79;21612;-77
2022/10/11 08:46:44;;;;;;;24.72;3.85;;;;;;;19.81;45.70;101524.72;1761062;79;21105;-77
2022/10/11 08:49:11;;;;;;;14.58;3.22;;;;;;;19.86;46.10;101519.70;1751228;79;21054;-77
2022/10/11 08:51:50;;;;;;;24.02;3.83;;;;;;;19.89;46.20;101522.69;1728709;81;21043;-77
2022/10/11 08:54:46;;;;;;;14.95;3.08;;;;;;;19.91;46.27;101524.58;1763746;79;21433;-76
2022/10/11 08:57:19;;;;;;;26.10;3.50;;;;;;;19.93;46.31;101515.45;1758092;80;21062;-77
2022/10/11 08:59:59;;;;;;;15.15;2.47;;;;;;;19.97;46.38;101520.64;1758236;79;21705;-82
2022/10/11 09:03:02;;;;;;;17.60;2.87;;;;;;;20.01;46.46;101509.82;1731879;79;21374;-78
2022/10/11 09:05:36;;;;;;;13.35;2.75;;;;;;;20.02;46.48;101511.47;1727056;82;21165;-78
2022/10/11 09:08:23;;;;;;;18.90;2.98;;;;;;;20.01;46.35;101501.53;1734041;81;21070;-79
2022/10/11 09:11:01;;;;;;;17.57;2.52;;;;;;;19.99;46.63;101503.20;1743221;80;21607;-78
2022/10/11 09:13:40;;;;;;;10.18;2.52;;;;;;;19.99;46.54;101505.13;1686199;82;21047;-78
2022/10/11 09:16:12;;;;;;;12.28;2.37;;;;;;;19.98;46.51;101497.44;1721864;82;21115;-79
2022/10/11 09:19:01;;;;;;;10.00;2.77;;;;;;;19.99;46.43;101492.70;1741961;80;21058;-78
2022/10/11 09:21:51;;;;;;;5.47;2.00;;;;;;;19.97;46.36;101491.64;1733694;81;21813;-79
2022/10/11 09:25:10;;;;;;;8.88;2.50;;;;;;;19.98;46.28;101496.61;1696922;82;21111;-79
2022/10/11 09:28:03;;;;;;;8.50;2.20;;;;;;;19.99;46.22;101496.84;1682337;82;21143;-78
2022/10/11 09:30:29;;;;;;;7.10;2.33;;;;;;;19.96;46.12;101498.83;1715037;82;22289;-78
2022/10/11 09:33:12;;;;;;;14.47;2.83;;;;;;;19.96;46.12;101504.36;1712171;82;21538;-79
2022/10/11 09:35:42;;;;;;;5.45;1.82;;;;;;;19.95;46.18;101506.30;1719469;82;21095;-78
2022/10/11 09:38:32;;;;;;;5.95;2.05;;;;;;;19.95;46.15;101502.15;1706874;82;21047;-80
2022/10/11 09:41:06;;;;;;;6.17;2.33;;;;;;;19.97;46.08;101502.69;1704105;83;21288;-78
2022/10/11 09:43:33;;;;;;;5.55;2.05;;;;;;;19.96;46.02;101501.04;1702881;84;21201;-80
2022/10/11 09:45:59;;;;;;;5.65;2.33;;;;;;;19.97;46.00;101505.45;1706257;82;21099;-81
2022/10/11 09:48:39;;;;;;;6.08;2.00;;;;;;;19.98;45.97;101498.81;1724412;82;21111;-83
2022/10/11 09:51:10;;;;;;;7.53;2.08;;;;;;;20.01;46.06;101497.39;1706304;82;22150;-78
2022/10/11 09:53:51;;;;;;;7.50;2.52;;;;;;;20.10;46.20;101499.75;1704409;82;27405;-79
2022/10/11 09:56:18;;;;;;;15.08;2.60;;;;;;;20.17;46.42;101495.23;1711854;80;21350;-81
2022/10/11 09:58:46;;;;;;;25.75;3.00;;;;;;;20.29;46.85;101503.89;1735903;80;21072;-79
2022/10/11 10:01:23;;;;;;;22.98;3.42;;;;;;;20.37;47.02;101494.95;1723983;80;21483;-79
2022/10/11 10:04:08;;;;;;;17.12;2.70;;;;;;;20.44;47.20;101496.80;1703163;83;21631;-77
2022/10/11 10:06:35;;;;;;;16.67;2.45;;;;;;;20.49;47.12;101496.73;1706763;83;21154;-77
2022/10/11 10:09:26;;;;;;;7.87;2.22;;;;;;;20.49;46.93;101498.11;1735808;80;21085;-78
2022/10/11 10:11:54;;;;;;;14.00;2.83;;;;;;;20.46;46.72;101492.60;1735122;82;21109;-77
2022/10/11 10:14:27;;;;;;;14.83;4.03;;;;;;;20.41;46.61;101490.50;1742677;82;21024;-77
2022/10/11 10:17:15;;;;;;;12.82;2.72;;;;;;;20.38;46.56;101491.08;1738991;82;21522;-78
2022/10/11 10:19:49;;;;;;;6.40;2.65;;;;;;;20.35;46.67;101489.75;1708263;82;21076;-79
2022/10/11 10:22:25;;;;;;;8.73;2.40;;;;;;;20.31;46.57;101485.94;1736867;82;21120;-78
2022/10/11 10:24:52;;;;;;;6.58;2.40;;;;;;;20.30;46.54;101486.23;1726132;80;21471;-79
2022/10/11 10:27:21;;;;;;;5.78;2.52;;;;;;;20.25;46.45;101480.73;1734089;80;21382;-78
2022/10/11 10:30:13;;;;;;;11.08;2.37;;;;;;;20.20;46.43;101478.08;1717578;82;21147;-78
2022/10/11 10:32:45;;;;;;;5.33;2.20;;;;;;;20.19;46.39;101475.05;1686946;83;21069;-78
2022/10/11 10:35:25;;;;;;;4.75;2.33;;;;;;;20.15;46.34;101469.86;1738172;81;21632;-77
2022/10/11 10:38:02;;;;;;;8.38;2.37;;;;;;;20.14;46.34;101473.73;1722458;80;21125;-78
2022/10/11 10:40:40;;;;;;;6.62;2.70;;;;;;;20.10;46.29;101462.46;1700539;82;21064;-80
2022/10/11 10:43:17;;;;;;;6.83;2.30;;;;;;;20.10;46.27;101468.54;1727754;81;21078;-78
2022/10/11 10:46:24;;;;;;;6.28;2.58;;;;;;;20.08;46.23;101459.98;1721841;82;21131;-78
2022/10/11 10:49:19;;;;;;;4.70;2.20;;;;;;;20.08;46.21;101456.40;1714489;82;21634;-77
2022/10/11 10:52:10;;;;;;;12.53;2.45;;;;;;;20.08;46.21;101452.25;1715806;80;21117;-78
2022/10/11 10:55:06;;;;;;;17.67;3.22;;;;;;;20.07;46.30;101452.81;1718010;82;21575;-79
2022/10/11 10:58:25;;;;;;;14.10;2.87;;;;;;;20.12;46.50;101452.47;1727021;82;21128;-77
2022/10/11 11:01:01;;;;;;;11.40;3.45;;;;;;;20.15;46.68;101449.13;1731596;82;22270;-78
2022/10/11 11:03:42;;;;;;;19.77;3.27;;;;;;;20.16;46.77;101442.47;1686661;83;21404;-79
2022/10/11 11:06:26;;;;;;;;;;;;;;;20.17;46.94;101444.11;1719614;81;21219;-77
2022/10/11 11:09:05;;;;;;;13.45;2.72;;;;;;;20.14;47.30;101433.67;1707215;82;20237;-80
2022/10/11 11:11:52;;;;;;;14.20;3.15;;;;;;;20.13;47.17;101428.70;1708446;82;21143;-79
2022/10/11 11:14:42;;;;;;;14.33;3.05;;;;;;;20.14;47.20;101429.53;1706003;82;21538;-79
2022/10/11 11:17:23;;;;;;;13.83;2.93;;;;;;;20.14;47.21;101425.38;1668172;83;21835;-78
2022/10/11 11:19:58;;;;;;;5.62;2.80;;;;;;;20.14;47.25;101428.14;1714843;82;21453;-79
2022/10/11 11:22:57;;;;;;;25.82;3.65;;;;;;;20.15;47.25;101431.17;1726664;82;21113;-80
2022/10/11 11:26:10;;;;;;;7.53;2.42;;;;;;;20.15;47.27;101424.27;1707084;82;21066;-78
2022/10/11 11:29:18;;;;;;;11.55;2.42;;;;;;;20.16;47.16;101421.19;1741795;82;21089;-78
2022/10/11 11:32:09;;;;;;;6.45;2.65;;;;;;;20.17;47.07;101409.02;1697017;83;21536;-77
2022/10/11 11:34:43;;;;;;;5.12;2.45;;;;;;;20.17;46.97;101404.05;1701656;83;21140;-78
2022/10/11 11:37:29;;;;;;;7.67;2.80;;;;;;;20.17;46.92;101399.36;1709429;82;21132;-77
2022/10/11 11:40:15;;;;;;;6.20;2.22;;;;;;;20.17;46.87;101402.12;1703819;82;21197;-79
2022/10/11 11:42:47;;;;;;;8.03;2.60;;;;;;;20.18;46.85;101398.23;1710752;82;21097;-76
2022/10/11 11:45:42;;;;;;;5.60;2.95;;;;;;;20.18;46.79;101394.09;1715679;82;21219;-77
2022/10/11 11:48:23;;;;;;;8.48;2.47;;;;;;;20.17;46.72;101386.09;1741689;81;21103;-76